sensor_id;sensor_type;location;lat;lon;timestamp;P1;durP1;ratioP1;P2;durP2;ratioP2
62696;SDS011;48761;42.680;23.312;2023-02-01T00:01:47;7.70;;;5.53;;
62696;SDS011;48761;42.680;23.312;2023-02-01T00:04:13;8.55;;;5.32;;
62696;SDS011;48761;42.680;23.312;2023-02-01T00:06:40;7.70;;;5.20;;
62696;SDS011;48761;42.680;23.312;2023-02-01T00:09:06;7.88;;;5.18;;
62696;SDS011;48761;42.680;23.312;2023-02-01T00:11:32;7.05;;;4.78;;
62696;SDS011;48761;42.680;23.312;2023-02-01T00:13:58;7.50;;;4.88;;
62696;SDS011;48761;42.680;23.312;2023-02-01T00:16:25;6.95;;;4.93;;
62696;SDS011;48761;42.680;23.312;2023-02-01T00:18:56;8.10;;;5.35;;
62696;SDS011;48761;42.680;23.312;2023-02-01T00:21:26;5.95;;;4.60;;
62696;SDS011;48761;42.680;23.312;2023-02-01T00:23:52;7.43;;;5.20;;
62696;SDS011;48761;42.680;23.312;2023-02-01T00:29:09;9.05;;;5.57;;
62696;SDS011;48761;42.680;23.312;2023-02-01T00:31:38;10.77;;;5.80;;
62696;SDS011;48761;42.680;23.312;2023-02-01T00:34:04;8.40;;;5.68;;
62696;SDS011;48761;42.680;23.312;2023-02-01T00:36:31;7.15;;;5.65;;
62696;SDS011;48761;42.680;23.312;2023-02-01T00:38:57;7.85;;;4.97;;
62696;SDS011;48761;42.680;23.312;2023-02-01T00:41:23;8.57;;;5.07;;
62696;SDS011;48761;42.680;23.312;2023-02-01T00:43:49;6.80;;;4.50;;
62696;SDS011;48761;42.680;23.312;2023-02-01T00:46:16;7.35;;;4.78;;
62696;SDS011;48761;42.680;23.312;2023-02-01T00:48:43;6.70;;;4.60;;
62696;SDS011;48761;42.680;23.312;2023-02-01T00:51:14;10.40;;;4.60;;
62696;SDS011;48761;42.680;23.312;2023-02-01T00:53:42;6.88;;;4.05;;
62696;SDS011;48761;42.680;23.312;2023-02-01T00:56:08;7.95;;;4.53;;
62696;SDS011;48761;42.680;23.312;2023-02-01T00:58:34;6.10;;;4.25;;
62696;SDS011;48761;42.680;23.312;2023-02-01T01:03:32;9.70;;;4.63;;
62696;SDS011;48761;42.680;23.312;2023-02-01T01:06:01;9.18;;;4.50;;
62696;SDS011;48761;42.680;23.312;2023-02-01T01:08:28;6.93;;;4.68;;
62696;SDS011;48761;42.680;23.312;2023-02-01T01:10:55;5.60;;;3.90;;
62696;SDS011;48761;42.680;23.312;2023-02-01T01:13:21;6.78;;;4.10;;
62696;SDS011;48761;42.680;23.312;2023-02-01T01:15:47;7.95;;;4.63;;
62696;SDS011;48761;42.680;23.312;2023-02-01T01:18:13;7.82;;;4.63;;
62696;SDS011;48761;42.680;23.312;2023-02-01T01:20:39;6.38;;;3.70;;
62696;SDS011;48761;42.680;23.312;2023-02-01T01:23:07;6.45;;;4.57;;
62696;SDS011;48761;42.680;23.312;2023-02-01T01:25:38;8.00;;;4.05;;
62696;SDS011;48761;42.680;23.312;2023-02-01T01:28:05;7.68;;;4.40;;
62696;SDS011;48761;42.680;23.312;2023-02-01T01:30:33;9.18;;;4.60;;
62696;SDS011;48761;42.680;23.312;2023-02-01T01:32:59;5.75;;;3.53;;
62696;SDS011;48761;42.680;23.312;2023-02-01T01:35:25;5.38;;;3.50;;
62696;SDS011;48761;42.680;23.312;2023-02-01T01:37:51;6.35;;;3.40;;
62696;SDS011;48761;42.680;23.312;2023-02-01T01:40:17;5.78;;;3.60;;
62696;SDS011;48761;42.680;23.312;2023-02-01T01:42:43;6.30;;;3.83;;
62696;SDS011;48761;42.680;23.312;2023-02-01T01:45:29;6.35;;;3.50;;
62696;SDS011;48761;42.680;23.312;2023-02-01T01:48:00;6.60;;;3.42;;
62696;SDS011;48761;42.680;23.312;2023-02-01T01:50:35;5.25;;;3.13;;
62696;SDS011;48761;42.680;23.312;2023-02-01T01:53:08;7.07;;;3.47;;
62696;SDS011;48761;42.680;23.312;2023-02-01T01:55:39;7.30;;;3.85;;
62696;SDS011;48761;42.680;23.312;2023-02-01T01:58:10;6.63;;;3.30;;
62696;SDS011;48761;42.680;23.312;2023-02-01T02:00:40;5.82;;;3.33;;
62696;SDS011;48761;42.680;23.312;2023-02-01T02:03:08;5.88;;;3.38;;
62696;SDS011;48761;42.680;23.312;2023-02-01T02:05:40;6.22;;;3.08;;
62696;SDS011;48761;42.680;23.312;2023-02-01T02:08:07;8.50;;;3.97;;
62696;SDS011;48761;42.680;23.312;2023-02-01T02:10:33;6.45;;;3.53;;
62696;SDS011;48761;42.680;23.312;2023-02-01T02:12:59;8.23;;;4.47;;
62696;SDS011;48761;42.680;23.312;2023-02-01T02:15:25;5.88;;;3.50;;
62696;SDS011;48761;42.680;23.312;2023-02-01T02:17:58;5.75;;;3.60;;
62696;SDS011;48761;42.680;23.312;2023-02-01T02:20:45;9.57;;;4.15;;
62696;SDS011;48761;42.680;23.312;2023-02-01T02:23:37;6.15;;;3.35;;
62696;SDS011;48761;42.680;23.312;2023-02-01T02:26:25;7.60;;;3.63;;
62696;SDS011;48761;42.680;23.312;2023-02-01T02:34:32;10.73;;;3.83;;
62696;SDS011;48761;42.680;23.312;2023-02-01T02:42:33;6.45;;;3.30;;
62696;SDS011;48761;42.680;23.312;2023-02-01T02:53:48;6.63;;;3.55;;
62696;SDS011;48761;42.680;23.312;2023-02-01T02:56:22;6.50;;;3.72;;
62696;SDS011;48761;42.680;23.312;2023-02-01T02:58:51;8.95;;;3.42;;
62696;SDS011;48761;42.680;23.312;2023-02-01T03:01:18;8.07;;;3.90;;
62696;SDS011;48761;42.680;23.312;2023-02-01T03:03:44;7.97;;;3.70;;
62696;SDS011;48761;42.680;23.312;2023-02-01T03:06:12;5.85;;;3.22;;
62696;SDS011;48761;42.680;23.312;2023-02-01T03:08:43;5.47;;;2.85;;
62696;SDS011;48761;42.680;23.312;2023-02-01T03:11:09;6.22;;;3.30;;
62696;SDS011;48761;42.680;23.312;2023-02-01T03:19:09;7.65;;;2.70;;
62696;SDS011;48761;42.680;23.312;2023-02-01T03:21:53;6.50;;;2.83;;
62696;SDS011;48761;42.680;23.312;2023-02-01T03:24:32;3.70;;;2.80;;
62696;SDS011;48761;42.680;23.312;2023-02-01T03:29:50;6.83;;;3.33;;
62696;SDS011;48761;42.680;23.312;2023-02-01T03:32:18;6.22;;;3.08;;
62696;SDS011;48761;42.680;23.312;2023-02-01T03:34:44;5.25;;;2.95;;
62696;SDS011;48761;42.680;23.312;2023-02-01T03:37:11;6.88;;;3.22;;
62696;SDS011;48761;42.680;23.312;2023-02-01T03:42:35;6.10;;;3.00;;
62696;SDS011;48761;42.680;23.312;2023-02-01T03:47:54;7.38;;;3.28;;
62696;SDS011;48761;42.680;23.312;2023-02-01T03:50:24;6.20;;;2.80;;
62696;SDS011;48761;42.680;23.312;2023-02-01T03:52:54;8.05;;;2.97;;
62696;SDS011;48761;42.680;23.312;2023-02-01T03:55:26;8.48;;;2.90;;
62696;SDS011;48761;42.680;23.312;2023-02-01T03:57:58;6.47;;;2.78;;
62696;SDS011;48761;42.680;23.312;2023-02-01T04:00:29;5.80;;;2.80;;
62696;SDS011;48761;42.680;23.312;2023-02-01T04:02:55;6.78;;;2.88;;
62696;SDS011;48761;42.680;23.312;2023-02-01T04:05:21;4.85;;;2.90;;
62696;SDS011;48761;42.680;23.312;2023-02-01T04:07:48;5.18;;;3.03;;
62696;SDS011;48761;42.680;23.312;2023-02-01T04:10:13;5.80;;;3.10;;
62696;SDS011;48761;42.680;23.312;2023-02-01T04:12:40;7.85;;;3.20;;
62696;SDS011;48761;42.680;23.312;2023-02-01T04:15:06;5.60;;;3.60;;
62696;SDS011;48761;42.680;23.312;2023-02-01T04:17:32;5.53;;;3.25;;
62696;SDS011;48761;42.680;23.312;2023-02-01T04:19:58;6.88;;;3.38;;
62696;SDS011;48761;42.680;23.312;2023-02-01T04:22:24;6.32;;;3.78;;
62696;SDS011;48761;42.680;23.312;2023-02-01T04:24:50;8.20;;;3.10;;
62696;SDS011;48761;42.680;23.312;2023-02-01T04:27:16;8.02;;;3.63;;
62696;SDS011;48761;42.680;23.312;2023-02-01T04:29:42;7.40;;;3.60;;
62696;SDS011;48761;42.680;23.312;2023-02-01T04:32:08;7.78;;;3.60;;
62696;SDS011;48761;42.680;23.312;2023-02-01T04:34:34;6.50;;;3.78;;
62696;SDS011;48761;42.680;23.312;2023-02-01T04:36:59;6.18;;;3.58;;
62696;SDS011;48761;42.680;23.312;2023-02-01T04:39:25;6.97;;;3.30;;
62696;SDS011;48761;42.680;23.312;2023-02-01T04:41:51;8.90;;;3.47;;
62696;SDS011;48761;42.680;23.312;2023-02-01T04:44:17;6.35;;;3.60;;
62696;SDS011;48761;42.680;23.312;2023-02-01T04:46:45;9.02;;;4.28;;
62696;SDS011;48761;42.680;23.312;2023-02-01T04:49:12;7.15;;;4.05;;
62696;SDS011;48761;42.680;23.312;2023-02-01T04:51:39;8.80;;;4.55;;
62696;SDS011;48761;42.680;23.312;2023-02-01T04:54:06;7.25;;;4.30;;
62696;SDS011;48761;42.680;23.312;2023-02-01T04:56:33;8.15;;;4.63;;
62696;SDS011;48761;42.680;23.312;2023-02-01T04:58:59;7.70;;;4.45;;
62696;SDS011;48761;42.680;23.312;2023-02-01T05:01:25;7.45;;;4.55;;
62696;SDS011;48761;42.680;23.312;2023-02-01T05:03:51;8.43;;;4.70;;
62696;SDS011;48761;42.680;23.312;2023-02-01T05:06:17;12.20;;;4.43;;
62696;SDS011;48761;42.680;23.312;2023-02-01T05:08:43;8.82;;;4.45;;
62696;SDS011;48761;42.680;23.312;2023-02-01T05:11:09;9.48;;;4.43;;
62696;SDS011;48761;42.680;23.312;2023-02-01T05:13:34;13.15;;;4.95;;
62696;SDS011;48761;42.680;23.312;2023-02-01T05:16:00;10.35;;;4.28;;
62696;SDS011;48761;42.680;23.312;2023-02-01T05:18:26;8.77;;;4.88;;
62696;SDS011;48761;42.680;23.312;2023-02-01T05:20:52;11.75;;;4.63;;
62696;SDS011;48761;42.680;23.312;2023-02-01T05:23:18;11.15;;;5.13;;
62696;SDS011;48761;42.680;23.312;2023-02-01T05:25:44;10.90;;;5.03;;
62696;SDS011;48761;42.680;23.312;2023-02-01T05:28:10;8.35;;;4.78;;
62696;SDS011;48761;42.680;23.312;2023-02-01T05:30:36;9.55;;;4.45;;
62696;SDS011;48761;42.680;23.312;2023-02-01T05:33:02;10.02;;;4.47;;
62696;SDS011;48761;42.680;23.312;2023-02-01T05:35:28;8.85;;;4.85;;
62696;SDS011;48761;42.680;23.312;2023-02-01T05:37:54;9.15;;;5.00;;
62696;SDS011;48761;42.680;23.312;2023-02-01T05:40:20;13.95;;;5.22;;
62696;SDS011;48761;42.680;23.312;2023-02-01T05:42:46;8.95;;;5.03;;
62696;SDS011;48761;42.680;23.312;2023-02-01T05:45:12;13.95;;;5.10;;
62696;SDS011;48761;42.680;23.312;2023-02-01T05:47:38;9.02;;;5.15;;
62696;SDS011;48761;42.680;23.312;2023-02-01T05:50:04;9.65;;;5.10;;
62696;SDS011;48761;42.680;23.312;2023-02-01T05:52:30;12.50;;;6.38;;
62696;SDS011;48761;42.680;23.312;2023-02-01T05:54:56;9.88;;;5.40;;
62696;SDS011;48761;42.680;23.312;2023-02-01T05:57:22;9.93;;;4.53;;
62696;SDS011;48761;42.680;23.312;2023-02-01T05:59:48;8.10;;;4.95;;
62696;SDS011;48761;42.680;23.312;2023-02-01T06:02:15;14.80;;;5.15;;
62696;SDS011;48761;42.680;23.312;2023-02-01T06:04:41;11.70;;;4.20;;
62696;SDS011;48761;42.680;23.312;2023-02-01T06:07:07;10.70;;;4.50;;
62696;SDS011;48761;42.680;23.312;2023-02-01T06:09:35;16.20;;;4.65;;
62696;SDS011;48761;42.680;23.312;2023-02-01T06:12:02;13.98;;;3.90;;
62696;SDS011;48761;42.680;23.312;2023-02-01T06:14:29;7.63;;;4.03;;
62696;SDS011;48761;42.680;23.312;2023-02-01T06:16:55;10.90;;;4.10;;
62696;SDS011;48761;42.680;23.312;2023-02-01T06:19:21;7.60;;;4.20;;
62696;SDS011;48761;42.680;23.312;2023-02-01T06:21:47;17.10;;;5.10;;
62696;SDS011;48761;42.680;23.312;2023-02-01T06:24:13;13.23;;;4.35;;
62696;SDS011;48761;42.680;23.312;2023-02-01T06:26:40;9.43;;;4.10;;
62696;SDS011;48761;42.680;23.312;2023-02-01T06:29:06;6.65;;;3.78;;
62696;SDS011;48761;42.680;23.312;2023-02-01T06:31:34;11.60;;;4.18;;
62696;SDS011;48761;42.680;23.312;2023-02-01T06:34:00;6.80;;;4.30;;
62696;SDS011;48761;42.680;23.312;2023-02-01T06:36:26;8.50;;;3.90;;
62696;SDS011;48761;42.680;23.312;2023-02-01T06:38:52;5.53;;;3.50;;
62696;SDS011;48761;42.680;23.312;2023-02-01T06:41:18;7.00;;;3.88;;
62696;SDS011;48761;42.680;23.312;2023-02-01T06:43:44;7.80;;;3.83;;
62696;SDS011;48761;42.680;23.312;2023-02-01T06:46:11;10.70;;;4.28;;
62696;SDS011;48761;42.680;23.312;2023-02-01T06:48:38;11.68;;;4.40;;
62696;SDS011;48761;42.680;23.312;2023-02-01T06:51:04;11.30;;;4.25;;
62696;SDS011;48761;42.680;23.312;2023-02-01T06:53:30;7.95;;;3.78;;
62696;SDS011;48761;42.680;23.312;2023-02-01T06:58:27;11.05;;;3.97;;
62696;SDS011;48761;42.680;23.312;2023-02-01T07:00:54;12.80;;;3.90;;
62696;SDS011;48761;42.680;23.312;2023-02-01T07:03:20;15.80;;;4.63;;
62696;SDS011;48761;42.680;23.312;2023-02-01T07:05:46;10.40;;;4.80;;
62696;SDS011;48761;42.680;23.312;2023-02-01T07:08:12;12.48;;;4.43;;
62696;SDS011;48761;42.680;23.312;2023-02-01T07:10:38;10.10;;;4.28;;
62696;SDS011;48761;42.680;23.312;2023-02-01T07:13:04;11.10;;;4.80;;
62696;SDS011;48761;42.680;23.312;2023-02-01T07:15:30;7.18;;;4.30;;
62696;SDS011;48761;42.680;23.312;2023-02-01T07:17:56;9.45;;;4.07;;
62696;SDS011;48761;42.680;23.312;2023-02-01T07:20:23;11.65;;;4.50;;
62696;SDS011;48761;42.680;23.312;2023-02-01T07:22:54;7.55;;;3.40;;
62696;SDS011;48761;42.680;23.312;2023-02-01T07:25:20;16.00;;;3.95;;
62696;SDS011;48761;42.680;23.312;2023-02-01T07:27:46;17.48;;;4.25;;
62696;SDS011;48761;42.680;23.312;2023-02-01T07:30:12;9.23;;;4.05;;
62696;SDS011;48761;42.680;23.312;2023-02-01T07:32:38;15.70;;;4.85;;
62696;SDS011;48761;42.680;23.312;2023-02-01T07:35:04;8.45;;;4.00;;
62696;SDS011;48761;42.680;23.312;2023-02-01T07:37:30;6.00;;;3.63;;
62696;SDS011;48761;42.680;23.312;2023-02-01T07:39:56;7.93;;;4.13;;
62696;SDS011;48761;42.680;23.312;2023-02-01T07:42:22;8.90;;;4.22;;
62696;SDS011;48761;42.680;23.312;2023-02-01T07:44:48;9.13;;;4.05;;
62696;SDS011;48761;42.680;23.312;2023-02-01T07:47:14;9.15;;;3.75;;
62696;SDS011;48761;42.680;23.312;2023-02-01T07:49:40;6.50;;;3.67;;
62696;SDS011;48761;42.680;23.312;2023-02-01T07:52:06;6.18;;;3.20;;
62696;SDS011;48761;42.680;23.312;2023-02-01T07:54:32;9.48;;;3.80;;
62696;SDS011;48761;42.680;23.312;2023-02-01T07:56:58;8.73;;;3.65;;
62696;SDS011;48761;42.680;23.312;2023-02-01T07:59:23;9.40;;;3.72;;
62696;SDS011;48761;42.680;23.312;2023-02-01T08:01:49;14.20;;;4.13;;
62696;SDS011;48761;42.680;23.312;2023-02-01T08:04:15;15.00;;;4.43;;
62696;SDS011;48761;42.680;23.312;2023-02-01T08:06:41;10.45;;;3.17;;
62696;SDS011;48761;42.680;23.312;2023-02-01T08:09:07;10.00;;;3.92;;
62696;SDS011;48761;42.680;23.312;2023-02-01T08:11:33;8.68;;;4.03;;
62696;SDS011;48761;42.680;23.312;2023-02-01T08:13:59;13.93;;;4.40;;
62696;SDS011;48761;42.680;23.312;2023-02-01T08:16:25;13.88;;;4.43;;
62696;SDS011;48761;42.680;23.312;2023-02-01T08:18:52;7.57;;;3.30;;
62696;SDS011;48761;42.680;23.312;2023-02-01T08:21:20;11.20;;;3.63;;
62696;SDS011;48761;42.680;23.312;2023-02-01T08:23:47;12.40;;;3.50;;
62696;SDS011;48761;42.680;23.312;2023-02-01T08:26:23;10.48;;;3.42;;
62696;SDS011;48761;42.680;23.312;2023-02-01T08:28:52;5.72;;;2.90;;
62696;SDS011;48761;42.680;23.312;2023-02-01T08:31:21;12.15;;;5.30;;
62696;SDS011;48761;42.680;23.312;2023-02-01T08:33:55;8.60;;;4.03;;
62696;SDS011;48761;42.680;23.312;2023-02-01T08:36:23;6.50;;;3.33;;
62696;SDS011;48761;42.680;23.312;2023-02-01T08:38:50;9.93;;;3.30;;
62696;SDS011;48761;42.680;23.312;2023-02-01T08:41:23;6.82;;;3.10;;
62696;SDS011;48761;42.680;23.312;2023-02-01T08:44:03;8.48;;;2.90;;
62696;SDS011;48761;42.680;23.312;2023-02-01T08:49:45;6.53;;;3.25;;
62696;SDS011;48761;42.680;23.312;2023-02-01T08:52:11;10.95;;;3.70;;
62696;SDS011;48761;42.680;23.312;2023-02-01T08:54:37;9.15;;;3.20;;
62696;SDS011;48761;42.680;23.312;2023-02-01T08:57:06;10.23;;;3.33;;
62696;SDS011;48761;42.680;23.312;2023-02-01T08:59:35;11.98;;;3.25;;
62696;SDS011;48761;42.680;23.312;2023-02-01T09:02:01;7.22;;;2.97;;
62696;SDS011;48761;42.680;23.312;2023-02-01T09:04:27;8.38;;;3.40;;
62696;SDS011;48761;42.680;23.312;2023-02-01T09:06:53;9.35;;;3.17;;
62696;SDS011;48761;42.680;23.312;2023-02-01T09:09:19;6.90;;;2.63;;
62696;SDS011;48761;42.680;23.312;2023-02-01T09:11:45;8.52;;;2.97;;
62696;SDS011;48761;42.680;23.312;2023-02-01T09:14:11;7.28;;;2.60;;
62696;SDS011;48761;42.680;23.312;2023-02-01T09:16:37;7.93;;;2.72;;
62696;SDS011;48761;42.680;23.312;2023-02-01T09:19:03;11.93;;;2.88;;
62696;SDS011;48761;42.680;23.312;2023-02-01T09:21:29;11.07;;;2.85;;
62696;SDS011;48761;42.680;23.312;2023-02-01T09:23:55;7.00;;;2.97;;
62696;SDS011;48761;42.680;23.312;2023-02-01T09:29:05;8.75;;;3.03;;
62696;SDS011;48761;42.680;23.312;2023-02-01T09:31:32;10.00;;;2.70;;
62696;SDS011;48761;42.680;23.312;2023-02-01T09:33:58;4.32;;;2.30;;
62696;SDS011;48761;42.680;23.312;2023-02-01T09:36:24;10.63;;;2.90;;
62696;SDS011;48761;42.680;23.312;2023-02-01T09:38:50;6.97;;;2.67;;
62696;SDS011;48761;42.680;23.312;2023-02-01T09:46:32;6.93;;;2.80;;
62696;SDS011;48761;42.680;23.312;2023-02-01T09:49:00;7.43;;;3.00;;
62696;SDS011;48761;42.680;23.312;2023-02-01T09:51:31;7.63;;;3.13;;
62696;SDS011;48761;42.680;23.312;2023-02-01T09:56:34;4.47;;;2.20;;
62696;SDS011;48761;42.680;23.312;2023-02-01T10:01:55;8.20;;;2.83;;
62696;SDS011;48761;42.680;23.312;2023-02-01T10:04:21;10.32;;;2.65;;
62696;SDS011;48761;42.680;23.312;2023-02-01T10:15:18;6.60;;;2.83;;
62696;SDS011;48761;42.680;23.312;2023-02-01T10:18:00;5.32;;;2.40;;
62696;SDS011;48761;42.680;23.312;2023-02-01T10:23:39;6.07;;;2.40;;
62696;SDS011;48761;42.680;23.312;2023-02-01T10:26:19;10.00;;;3.65;;
62696;SDS011;48761;42.680;23.312;2023-02-01T10:28:53;8.50;;;2.85;;
62696;SDS011;48761;42.680;23.312;2023-02-01T10:31:28;10.60;;;3.17;;
62696;SDS011;48761;42.680;23.312;2023-02-01T10:33:57;5.65;;;2.47;;
62696;SDS011;48761;42.680;23.312;2023-02-01T10:38:57;5.72;;;2.47;;
62696;SDS011;48761;42.680;23.312;2023-02-01T10:41:24;7.50;;;2.38;;
62696;SDS011;48761;42.680;23.312;2023-02-01T10:44:03;4.35;;;2.25;;
62696;SDS011;48761;42.680;23.312;2023-02-01T10:46:36;10.43;;;2.80;;
62696;SDS011;48761;42.680;23.312;2023-02-01T10:49:03;7.80;;;2.10;;
62696;SDS011;48761;42.680;23.312;2023-02-01T10:51:34;7.07;;;2.28;;
62696;SDS011;48761;42.680;23.312;2023-02-01T10:54:10;6.80;;;2.53;;
62696;SDS011;48761;42.680;23.312;2023-02-01T10:56:43;7.95;;;2.72;;
62696;SDS011;48761;42.680;23.312;2023-02-01T10:59:20;8.82;;;3.65;;
62696;SDS011;48761;42.680;23.312;2023-02-01T11:01:50;9.73;;;2.67;;
62696;SDS011;48761;42.680;23.312;2023-02-01T11:04:24;7.72;;;2.22;;
62696;SDS011;48761;42.680;23.312;2023-02-01T11:07:04;7.35;;;2.65;;
62696;SDS011;48761;42.680;23.312;2023-02-01T11:09:33;5.68;;;2.55;;
62696;SDS011;48761;42.680;23.312;2023-02-01T11:12:04;9.30;;;2.15;;
62696;SDS011;48761;42.680;23.312;2023-02-01T11:14:35;5.40;;;2.35;;
62696;SDS011;48761;42.680;23.312;2023-02-01T11:19:46;6.53;;;2.50;;
62696;SDS011;48761;42.680;23.312;2023-02-01T11:22:21;3.75;;;1.95;;
62696;SDS011;48761;42.680;23.312;2023-02-01T11:24:47;5.50;;;2.08;;
62696;SDS011;48761;42.680;23.312;2023-02-01T11:27:14;5.75;;;2.13;;
62696;SDS011;48761;42.680;23.312;2023-02-01T11:29:43;8.15;;;1.98;;
62696;SDS011;48761;42.680;23.312;2023-02-01T11:32:13;3.78;;;1.45;;
62696;SDS011;48761;42.680;23.312;2023-02-01T11:34:46;5.50;;;1.67;;
62696;SDS011;48761;42.680;23.312;2023-02-01T11:37:18;3.15;;;1.80;;
62696;SDS011;48761;42.680;23.312;2023-02-01T11:39:53;4.40;;;2.00;;
62696;SDS011;48761;42.680;23.312;2023-02-01T11:42:21;5.38;;;2.00;;
62696;SDS011;48761;42.680;23.312;2023-02-01T11:44:47;6.93;;;2.50;;
62696;SDS011;48761;42.680;23.312;2023-02-01T11:47:20;4.05;;;2.00;;
62696;SDS011;48761;42.680;23.312;2023-02-01T11:49:50;6.05;;;1.90;;
62696;SDS011;48761;42.680;23.312;2023-02-01T11:52:36;5.30;;;1.80;;
62696;SDS011;48761;42.680;23.312;2023-02-01T12:04:26;3.47;;;1.42;;
62696;SDS011;48761;42.680;23.312;2023-02-01T12:07:05;5.63;;;1.80;;
62696;SDS011;48761;42.680;23.312;2023-02-01T12:20:31;4.57;;;1.60;;
62696;SDS011;48761;42.680;23.312;2023-02-01T12:34:31;4.82;;;2.20;;
62696;SDS011;48761;42.680;23.312;2023-02-01T12:37:11;3.45;;;1.48;;
62696;SDS011;48761;42.680;23.312;2023-02-01T12:43:04;7.07;;;2.30;;
62696;SDS011;48761;42.680;23.312;2023-02-01T12:45:38;3.72;;;1.67;;
62696;SDS011;48761;42.680;23.312;2023-02-01T12:51:02;2.92;;;1.83;;
62696;SDS011;48761;42.680;23.312;2023-02-01T12:53:51;3.65;;;1.83;;
62696;SDS011;48761;42.680;23.312;2023-02-01T12:56:22;5.38;;;1.95;;
62696;SDS011;48761;42.680;23.312;2023-02-01T12:58:55;3.05;;;1.80;;
62696;SDS011;48761;42.680;23.312;2023-02-01T13:01:40;6.05;;;2.08;;
62696;SDS011;48761;42.680;23.312;2023-02-01T13:04:20;6.25;;;1.90;;
62696;SDS011;48761;42.680;23.312;2023-02-01T13:07:11;4.45;;;2.15;;
62696;SDS011;48761;42.680;23.312;2023-02-01T13:12:32;4.65;;;1.90;;
62696;SDS011;48761;42.680;23.312;2023-02-01T13:15:45;4.47;;;1.88;;
62696;SDS011;48761;42.680;23.312;2023-02-01T13:17:54;4.40;;;2.20;;
62696;SDS011;48761;42.680;23.312;2023-02-01T13:23:43;3.33;;;1.73;;
62696;SDS011;48761;42.680;23.312;2023-02-01T13:26:15;3.95;;;1.70;;
62696;SDS011;48761;42.680;23.312;2023-02-01T13:28:44;5.35;;;1.60;;
62696;SDS011;48761;42.680;23.312;2023-02-01T13:42:56;5.55;;;2.30;;
62696;SDS011;48761;42.680;23.312;2023-02-01T13:45:26;8.02;;;2.15;;
62696;SDS011;48761;42.680;23.312;2023-02-01T13:47:57;4.18;;;1.83;;
62696;SDS011;48761;42.680;23.312;2023-02-01T13:50:35;3.72;;;2.08;;
62696;SDS011;48761;42.680;23.312;2023-02-01T13:53:04;3.55;;;1.67;;
62696;SDS011;48761;42.680;23.312;2023-02-01T13:55:41;5.38;;;1.90;;
62696;SDS011;48761;42.680;23.312;2023-02-01T13:58:20;4.20;;;2.00;;
62696;SDS011;48761;42.680;23.312;2023-02-01T14:00:49;7.32;;;1.48;;
62696;SDS011;48761;42.680;23.312;2023-02-01T14:03:22;3.97;;;2.20;;
62696;SDS011;48761;42.680;23.312;2023-02-01T14:06:15;7.72;;;2.13;;
62696;SDS011;48761;42.680;23.312;2023-02-01T14:09:10;7.28;;;2.40;;
62696;SDS011;48761;42.680;23.312;2023-02-01T14:11:51;5.43;;;2.00;;
62696;SDS011;48761;42.680;23.312;2023-02-01T14:17:29;4.93;;;2.47;;
62696;SDS011;48761;42.680;23.312;2023-02-01T14:19:37;7.75;;;2.33;;
62696;SDS011;48761;42.680;23.312;2023-02-01T14:24:51;4.00;;;1.67;;
62696;SDS011;48761;42.680;23.312;2023-02-01T14:27:20;7.13;;;1.90;;
62696;SDS011;48761;42.680;23.312;2023-02-01T14:29:53;5.25;;;1.90;;
62696;SDS011;48761;42.680;23.312;2023-02-01T14:32:24;6.65;;;1.90;;
62696;SDS011;48761;42.680;23.312;2023-02-01T14:38:08;4.18;;;2.28;;
62696;SDS011;48761;42.680;23.312;2023-02-01T14:40:35;3.92;;;1.80;;
62696;SDS011;48761;42.680;23.312;2023-02-01T14:43:01;4.80;;;1.85;;
62696;SDS011;48761;42.680;23.312;2023-02-01T14:55:49;5.03;;;2.20;;
62696;SDS011;48761;42.680;23.312;2023-02-01T15:03:43;5.35;;;2.38;;
62696;SDS011;48761;42.680;23.312;2023-02-01T15:09:11;6.43;;;2.17;;
62696;SDS011;48761;42.680;23.312;2023-02-01T15:17:15;7.38;;;2.90;;
62696;SDS011;48761;42.680;23.312;2023-02-01T15:22:43;7.78;;;2.42;;
62696;SDS011;48761;42.680;23.312;2023-02-01T15:25:39;10.90;;;2.83;;
62696;SDS011;48761;42.680;23.312;2023-02-01T15:28:05;7.13;;;2.80;;
62696;SDS011;48761;42.680;23.312;2023-02-01T15:30:37;10.93;;;2.85;;
62696;SDS011;48761;42.680;23.312;2023-02-01T15:33:13;10.32;;;3.90;;
62696;SDS011;48761;42.680;23.312;2023-02-01T15:35:41;9.93;;;4.50;;
62696;SDS011;48761;42.680;23.312;2023-02-01T15:43:41;14.88;;;4.18;;
62696;SDS011;48761;42.680;23.312;2023-02-01T15:46:15;9.35;;;3.75;;
62696;SDS011;48761;42.680;23.312;2023-02-01T15:49:02;5.97;;;3.00;;
62696;SDS011;48761;42.680;23.312;2023-02-01T15:51:31;9.60;;;3.83;;
62696;SDS011;48761;42.680;23.312;2023-02-01T15:54:02;7.03;;;3.17;;
62696;SDS011;48761;42.680;23.312;2023-02-01T15:56:39;5.22;;;2.38;;
62696;SDS011;48761;42.680;23.312;2023-02-01T15:59:13;9.40;;;3.60;;
62696;SDS011;48761;42.680;23.312;2023-02-01T16:01:41;14.27;;;4.45;;
62696;SDS011;48761;42.680;23.312;2023-02-01T16:06:47;6.90;;;3.47;;
62696;SDS011;48761;42.680;23.312;2023-02-01T16:09:14;7.20;;;3.58;;
62696;SDS011;48761;42.680;23.312;2023-02-01T16:12:02;10.75;;;3.10;;
62696;SDS011;48761;42.680;23.312;2023-02-01T16:14:29;5.70;;;2.72;;
62696;SDS011;48761;42.680;23.312;2023-02-01T16:16:56;5.60;;;2.47;;
62696;SDS011;48761;42.680;23.312;2023-02-01T16:19:24;6.78;;;2.67;;
62696;SDS011;48761;42.680;23.312;2023-02-01T16:21:50;7.30;;;2.95;;
62696;SDS011;48761;42.680;23.312;2023-02-01T16:24:16;4.25;;;2.25;;
62696;SDS011;48761;42.680;23.312;2023-02-01T16:26:42;4.18;;;2.00;;
62696;SDS011;48761;42.680;23.312;2023-02-01T16:29:08;5.15;;;2.47;;
62696;SDS011;48761;42.680;23.312;2023-02-01T16:31:35;5.38;;;2.30;;
62696;SDS011;48761;42.680;23.312;2023-02-01T16:34:03;5.78;;;2.28;;
62696;SDS011;48761;42.680;23.312;2023-02-01T16:36:29;4.22;;;2.50;;
62696;SDS011;48761;42.680;23.312;2023-02-01T16:38:55;4.57;;;2.50;;
62696;SDS011;48761;42.680;23.312;2023-02-01T16:41:22;6.32;;;3.22;;
62696;SDS011;48761;42.680;23.312;2023-02-01T16:43:49;6.50;;;2.75;;
62696;SDS011;48761;42.680;23.312;2023-02-01T16:46:18;6.15;;;3.00;;
62696;SDS011;48761;42.680;23.312;2023-02-01T16:48:53;8.00;;;3.03;;
62696;SDS011;48761;42.680;23.312;2023-02-01T16:51:21;6.07;;;2.78;;
62696;SDS011;48761;42.680;23.312;2023-02-01T16:53:50;6.85;;;2.92;;
62696;SDS011;48761;42.680;23.312;2023-02-01T16:56:17;6.72;;;3.20;;
62696;SDS011;48761;42.680;23.312;2023-02-01T16:58:46;14.15;;;3.80;;
62696;SDS011;48761;42.680;23.312;2023-02-01T17:01:13;7.13;;;3.95;;
62696;SDS011;48761;42.680;23.312;2023-02-01T17:03:41;7.30;;;4.00;;
62696;SDS011;48761;42.680;23.312;2023-02-01T17:06:07;9.45;;;3.97;;
62696;SDS011;48761;42.680;23.312;2023-02-01T17:08:36;6.20;;;3.35;;
62696;SDS011;48761;42.680;23.312;2023-02-01T17:11:06;6.47;;;3.33;;
62696;SDS011;48761;42.680;23.312;2023-02-01T17:13:32;7.18;;;3.70;;
62696;SDS011;48761;42.680;23.312;2023-02-01T17:16:03;7.25;;;3.42;;
62696;SDS011;48761;42.680;23.312;2023-02-01T17:18:32;8.95;;;3.95;;
62696;SDS011;48761;42.680;23.312;2023-02-01T17:21:00;8.63;;;3.50;;
62696;SDS011;48761;42.680;23.312;2023-02-01T17:23:28;9.18;;;3.28;;
62696;SDS011;48761;42.680;23.312;2023-02-01T17:25:55;8.68;;;4.05;;
62696;SDS011;48761;42.680;23.312;2023-02-01T17:28:21;6.63;;;3.70;;
62696;SDS011;48761;42.680;23.312;2023-02-01T17:30:48;8.23;;;3.63;;
62696;SDS011;48761;42.680;23.312;2023-02-01T17:35:48;9.63;;;3.60;;
62696;SDS011;48761;42.680;23.312;2023-02-01T17:38:18;9.25;;;4.30;;
62696;SDS011;48761;42.680;23.312;2023-02-01T17:40:44;7.70;;;3.42;;
62696;SDS011;48761;42.680;23.312;2023-02-01T17:43:14;8.05;;;2.83;;